Hlavní strana
METAR-TAF:

METAR-TAF

Letiště :

Oban, Skotsko

zeměpisná šířka: 56-27-49N, zeměpisná délka: 5-24-00W, výška: 7 m

Aktuální stav počasí

Zpráva byla vytvořena před 1 hodinou a 16 minutami, v 16:20 UTC
vítr z různých směrů 2 kt
Teplota 9°C
Vlhkost vzduchu 100%
Tlak 1036 hPa
Viditelnost: 3000 m
Zataženo ve výšce 200 ft
slabé mrholení, kouřmo

METAR: EGEO 221620Z VRB02KT 3000 -DZ BR OVC002 09/09 Q1036

Čas: 17:36 (17:36 UTC)

Předpověď počasí

Zpráva byla vytvořena před 3 hodinami a 34 minutami, v 14:02 UTC
Předpověď platná od 22 v 15 UTC do 22 v 17 UTC
Jihozápadní vítr 6 kt
Viditelnost: 3000 m
Oblačno až skoro zataženo ve výšce 400 ft
kouřmo
Dočasný
od 22 v 15 UTC do 22 v 17 UTC
Viditelnost: 6000 m
Polojasno ve výšce 400 ft
Oblačno až skoro zataženo ve výšce 1200 ft
slabé mrholení
Pravděpodobnost 30% :
Dočasný
od 22 v 15 UTC do 22 v 17 UTC
Viditelnost: 0200 m
mlha

TAF: EGEO 221402Z 2215/2217 23006KT 3000 BR BKN004 TEMPO 2215/2217 6000 -DZ SCT004 BKN012 PROB30 TEMPO 2215/2217 0200 FG VV///

Stav a předpovědi počasí z více než 4 000 letišť (zprávy METAR a TAF).

Červené a žluté tečky na mapě představují dostupné meteorologické stanice.

Když kurzor umístíte na tečku, zobrazí se název stanice.

Pak kliknutím zobrazíte stav a předpověď počasí.

Chcete-li změnit mapu, kliknutím na zelené tlačítko se znaménkem +mapu přiblížíte, kliknutím na zelené tlačítko se znaménkem – mapu oddálíte a kliknutím na zelené šipky přejdete na sousední mapy.


METAR-TAF: